Terminal Aerodrome Forecast
Issued by NWS

Home | Current Version | Previous Version | Text Only | Print | Product List | Glossary On
Versions: 1 2 3 4 5 6 7 8 9 10 11 12 13 14
546
FTPA31 PHFO 031121
TAFHKO
TAF
PHKO 031121Z 0312/0412 10005KT P6SM FEW035 SCT050
     FM031900 23009KT P6SM FEW030 SCT050
     FM040300 19009KT P6SM FEW030 BKN050
     FM040500 14005KT P6SM FEW030 BKN050=

USA.gov is the U.S. government's official web portal to all federal, state and local government web resources and services.